sensor_id;sensor_type;location;lat;lon;timestamp;temperature;humidity
59309;DHT22;48433;53.016;-2.260;2023-06-14T00:04:31;16.50;66.80
59309;DHT22;48433;53.016;-2.260;2023-06-14T00:09:27;16.30;67.90
59309;DHT22;48433;53.016;-2.260;2023-06-14T00:16:51;16.10;69.10
59309;DHT22;48433;53.016;-2.260;2023-06-14T00:19:20;16.00;69.10
59309;DHT22;48433;53.016;-2.260;2023-06-14T00:21:48;15.90;69.40
59309;DHT22;48433;53.016;-2.260;2023-06-14T00:26:44;15.80;69.80
59309;DHT22;48433;53.016;-2.260;2023-06-14T00:29:12;15.70;70.00
59309;DHT22;48433;53.016;-2.260;2023-06-14T00:31:39;15.70;70.00
59309;DHT22;48433;53.016;-2.260;2023-06-14T00:34:07;15.60;69.90
59309;DHT22;48433;53.016;-2.260;2023-06-14T00:41:32;15.40;70.20
59309;DHT22;48433;53.016;-2.260;2023-06-14T00:44:00;15.40;69.70
59309;DHT22;48433;53.016;-2.260;2023-06-14T00:46:27;15.40;67.70
59309;DHT22;48433;53.016;-2.260;2023-06-14T00:48:56;15.40;65.40
59309;DHT22;48433;53.016;-2.260;2023-06-14T00:51:26;15.40;64.10
59309;DHT22;48433;53.016;-2.260;2023-06-14T00:53:55;15.40;63.00
59309;DHT22;48433;53.016;-2.260;2023-06-14T00:58:52;15.40;60.70
59309;DHT22;48433;53.016;-2.260;2023-06-14T01:01:20;15.40;59.50
59309;DHT22;48433;53.016;-2.260;2023-06-14T01:03:48;15.40;58.60
59309;DHT22;48433;53.016;-2.260;2023-06-14T01:06:29;15.40;58.40
59309;DHT22;48433;53.016;-2.260;2023-06-14T01:11:47;15.40;58.50
59309;DHT22;48433;53.016;-2.260;2023-06-14T01:14:17;15.30;58.60
59309;DHT22;48433;53.016;-2.260;2023-06-14T01:16:46;15.30;58.80
59309;DHT22;48433;53.016;-2.260;2023-06-14T01:19:15;15.20;58.90
59309;DHT22;48433;53.016;-2.260;2023-06-14T01:21:43;15.10;59.10
59309;DHT22;48433;53.016;-2.260;2023-06-14T01:24:11;15.00;59.30
59309;DHT22;48433;53.016;-2.260;2023-06-14T01:26:40;14.90;59.70
59309;DHT22;48433;53.016;-2.260;2023-06-14T01:29:14;14.80;60.20
59309;DHT22;48433;53.016;-2.260;2023-06-14T01:31:45;14.60;60.80
59309;DHT22;48433;53.016;-2.260;2023-06-14T01:34:14;14.50;61.30
59309;DHT22;48433;53.016;-2.260;2023-06-14T01:36:43;14.40;61.80
59309;DHT22;48433;53.016;-2.260;2023-06-14T01:39:15;14.30;62.70
59309;DHT22;48433;53.016;-2.260;2023-06-14T01:41:43;14.30;63.30
59309;DHT22;48433;53.016;-2.260;2023-06-14T01:44:12;14.20;63.90
59309;DHT22;48433;53.016;-2.260;2023-06-14T01:46:42;14.10;64.40
59309;DHT22;48433;53.016;-2.260;2023-06-14T01:49:11;14.10;64.90
59309;DHT22;48433;53.016;-2.260;2023-06-14T01:54:08;14.00;66.20
59309;DHT22;48433;53.016;-2.260;2023-06-14T01:56:38;13.90;66.80
59309;DHT22;48433;53.016;-2.260;2023-06-14T02:04:01;13.70;69.10
59309;DHT22;48433;53.016;-2.260;2023-06-14T02:06:29;13.60;69.70
59309;DHT22;48433;53.016;-2.260;2023-06-14T02:08:57;13.60;70.30
59309;DHT22;48433;53.016;-2.260;2023-06-14T02:11:28;13.40;70.80
59309;DHT22;48433;53.016;-2.260;2023-06-14T02:13:56;13.30;71.90
59309;DHT22;48433;53.016;-2.260;2023-06-14T02:16:24;13.20;72.70
59309;DHT22;48433;53.016;-2.260;2023-06-14T02:21:20;13.00;73.90
59309;DHT22;48433;53.016;-2.260;2023-06-14T02:23:47;13.00;74.60
59309;DHT22;48433;53.016;-2.260;2023-06-14T02:26:15;12.90;75.10
59309;DHT22;48433;53.016;-2.260;2023-06-14T02:43:31;12.20;80.50
59309;DHT22;48433;53.016;-2.260;2023-06-14T02:48:27;12.10;82.20
59309;DHT22;48433;53.016;-2.260;2023-06-14T02:50:55;11.90;83.10
59309;DHT22;48433;53.016;-2.260;2023-06-14T02:55:51;11.80;84.60
59309;DHT22;48433;53.016;-2.260;2023-06-14T02:58:20;11.80;85.50
59309;DHT22;48433;53.016;-2.260;2023-06-14T03:00:48;11.80;86.30
59309;DHT22;48433;53.016;-2.260;2023-06-14T03:03:16;11.80;87.00
59309;DHT22;48433;53.016;-2.260;2023-06-14T03:10:55;11.90;89.30
59309;DHT22;48433;53.016;-2.260;2023-06-14T03:15:53;11.80;90.20
59309;DHT22;48433;53.016;-2.260;2023-06-14T03:18:24;11.70;90.80
59309;DHT22;48433;53.016;-2.260;2023-06-14T03:20:56;11.70;91.00
59309;DHT22;48433;53.016;-2.260;2023-06-14T03:23:27;11.50;91.20
59309;DHT22;48433;53.016;-2.260;2023-06-14T03:28:23;11.20;92.00
59309;DHT22;48433;53.016;-2.260;2023-06-14T03:33:22;11.20;93.00
59309;DHT22;48433;53.016;-2.260;2023-06-14T03:35:50;11.10;93.50
59309;DHT22;48433;53.016;-2.260;2023-06-14T03:38:18;11.10;93.90
59309;DHT22;48433;53.016;-2.260;2023-06-14T03:40:46;11.10;94.50
59309;DHT22;48433;53.016;-2.260;2023-06-14T03:43:14;11.10;94.80
59309;DHT22;48433;53.016;-2.260;2023-06-14T03:50:39;11.00;95.70
59309;DHT22;48433;53.016;-2.260;2023-06-14T03:53:07;11.00;96.10
59309;DHT22;48433;53.016;-2.260;2023-06-14T03:55:39;10.90;96.60
59309;DHT22;48433;53.016;-2.260;2023-06-14T03:58:27;10.80;97.10
59309;DHT22;48433;53.016;-2.260;2023-06-14T04:05:58;10.90;98.20
59309;DHT22;48433;53.016;-2.260;2023-06-14T04:18:25;10.70;99.80
59309;DHT22;48433;53.016;-2.260;2023-06-14T04:20:55;10.70;99.90
59309;DHT22;48433;53.016;-2.260;2023-06-14T04:23:24;10.70;99.90
59309;DHT22;48433;53.016;-2.260;2023-06-14T04:25:52;10.70;99.90
59309;DHT22;48433;53.016;-2.260;2023-06-14T04:28:20;10.70;99.90
59309;DHT22;48433;53.016;-2.260;2023-06-14T04:33:17;10.80;99.90
59309;DHT22;48433;53.016;-2.260;2023-06-14T04:35:46;10.90;99.90
59309;DHT22;48433;53.016;-2.260;2023-06-14T04:38:20;11.00;99.90
59309;DHT22;48433;53.016;-2.260;2023-06-14T04:45:55;11.30;99.90
59309;DHT22;48433;53.016;-2.260;2023-06-14T04:48:25;11.40;99.90
59309;DHT22;48433;53.016;-2.260;2023-06-14T04:50:54;11.50;99.90
59309;DHT22;48433;53.016;-2.260;2023-06-14T04:53:21;11.70;99.90
59309;DHT22;48433;53.016;-2.260;2023-06-14T04:55:53;11.80;99.90
59309;DHT22;48433;53.016;-2.260;2023-06-14T04:58:21;12.00;99.90
59309;DHT22;48433;53.016;-2.260;2023-06-14T05:05:46;12.40;99.90
59309;DHT22;48433;53.016;-2.260;2023-06-14T05:08:14;12.60;99.90
59309;DHT22;48433;53.016;-2.260;2023-06-14T05:15:39;12.90;99.90
59309;DHT22;48433;53.016;-2.260;2023-06-14T05:23:05;13.10;99.90
59309;DHT22;48433;53.016;-2.260;2023-06-14T05:32:57;13.30;99.90
59309;DHT22;48433;53.016;-2.260;2023-06-14T05:35:25;13.40;99.90
59309;DHT22;48433;53.016;-2.260;2023-06-14T05:37:54;13.50;99.90
59309;DHT22;48433;53.016;-2.260;2023-06-14T05:40:22;13.60;99.90
59309;DHT22;48433;53.016;-2.260;2023-06-14T05:42:49;13.70;99.90
59309;DHT22;48433;53.016;-2.260;2023-06-14T05:47:45;14.00;99.90
59309;DHT22;48433;53.016;-2.260;2023-06-14T05:50:13;14.10;99.90
59309;DHT22;48433;53.016;-2.260;2023-06-14T05:57:40;14.40;99.90
59309;DHT22;48433;53.016;-2.260;2023-06-14T06:00:09;14.50;99.90
59309;DHT22;48433;53.016;-2.260;2023-06-14T06:07:36;14.80;99.70
59309;DHT22;48433;53.016;-2.260;2023-06-14T06:12:33;15.00;98.50
59309;DHT22;48433;53.016;-2.260;2023-06-14T06:22:40;15.50;97.20
59309;DHT22;48433;53.016;-2.260;2023-06-14T06:25:08;15.60;97.10
59309;DHT22;48433;53.016;-2.260;2023-06-14T06:27:36;15.70;96.80
59309;DHT22;48433;53.016;-2.260;2023-06-14T06:30:05;15.80;96.60
59309;DHT22;48433;53.016;-2.260;2023-06-14T06:35:01;16.00;96.20
59309;DHT22;48433;53.016;-2.260;2023-06-14T06:37:29;16.10;95.90
59309;DHT22;48433;53.016;-2.260;2023-06-14T07:17:00;18.00;92.40
59309;DHT22;48433;53.016;-2.260;2023-06-14T07:19:28;18.10;92.30
59309;DHT22;48433;53.016;-2.260;2023-06-14T07:21:56;18.20;92.20
59309;DHT22;48433;53.016;-2.260;2023-06-14T07:24:23;18.30;92.00
59309;DHT22;48433;53.016;-2.260;2023-06-14T07:29:20;18.60;91.50
59309;DHT22;48433;53.016;-2.260;2023-06-14T07:31:48;18.70;91.40
59309;DHT22;48433;53.016;-2.260;2023-06-14T07:34:16;18.90;91.10
59309;DHT22;48433;53.016;-2.260;2023-06-14T07:36:43;19.00;90.90
59309;DHT22;48433;53.016;-2.260;2023-06-14T07:41:40;19.20;90.50
59309;DHT22;48433;53.016;-2.260;2023-06-14T07:44:07;19.30;90.30
59309;DHT22;48433;53.016;-2.260;2023-06-14T07:49:03;19.50;89.50
59309;DHT22;48433;53.016;-2.260;2023-06-14T07:51:31;19.70;89.30
59309;DHT22;48433;53.016;-2.260;2023-06-14T07:54:00;19.80;88.50
59309;DHT22;48433;53.016;-2.260;2023-06-14T07:58:58;20.10;87.00
59309;DHT22;48433;53.016;-2.260;2023-06-14T08:01:26;20.30;86.50
59309;DHT22;48433;53.016;-2.260;2023-06-14T08:03:55;20.40;86.20
59309;DHT22;48433;53.016;-2.260;2023-06-14T08:06:23;20.50;85.70
59309;DHT22;48433;53.016;-2.260;2023-06-14T08:13:46;20.90;84.00
59309;DHT22;48433;53.016;-2.260;2023-06-14T08:16:14;21.00;83.70
59309;DHT22;48433;53.016;-2.260;2023-06-14T08:18:41;21.20;83.60
59309;DHT22;48433;53.016;-2.260;2023-06-14T08:23:37;21.60;82.50
59309;DHT22;48433;53.016;-2.260;2023-06-14T08:26:05;21.80;82.00
59309;DHT22;48433;53.016;-2.260;2023-06-14T08:31:00;22.00;81.00
59309;DHT22;48433;53.016;-2.260;2023-06-14T08:33:29;22.10;80.40
59309;DHT22;48433;53.016;-2.260;2023-06-14T08:35:57;22.20;80.00
59309;DHT22;48433;53.016;-2.260;2023-06-14T08:40:57;22.50;79.00
59309;DHT22;48433;53.016;-2.260;2023-06-14T08:46:03;22.70;77.80
59309;DHT22;48433;53.016;-2.260;2023-06-14T08:48:32;22.70;77.00
59309;DHT22;48433;53.016;-2.260;2023-06-14T08:51:01;22.80;76.70
59309;DHT22;48433;53.016;-2.260;2023-06-14T08:53:31;22.90;76.40
59309;DHT22;48433;53.016;-2.260;2023-06-14T08:56:05;23.10;76.40
59309;DHT22;48433;53.016;-2.260;2023-06-14T08:58:34;23.30;75.90
59309;DHT22;48433;53.016;-2.260;2023-06-14T09:01:03;23.40;74.90
59309;DHT22;48433;53.016;-2.260;2023-06-14T09:03:32;23.60;74.80
59309;DHT22;48433;53.016;-2.260;2023-06-14T09:06:01;23.70;74.60
59309;DHT22;48433;53.016;-2.260;2023-06-14T09:08:29;23.90;73.50
59309;DHT22;48433;53.016;-2.260;2023-06-14T09:10:58;23.90;73.10
59309;DHT22;48433;53.016;-2.260;2023-06-14T09:13:26;23.80;71.90
59309;DHT22;48433;53.016;-2.260;2023-06-14T09:15:59;23.80;72.30
59309;DHT22;48433;53.016;-2.260;2023-06-14T09:18:35;23.80;72.20
59309;DHT22;48433;53.016;-2.260;2023-06-14T09:21:06;23.70;71.40
59309;DHT22;48433;53.016;-2.260;2023-06-14T09:23:39;23.60;71.90
59309;DHT22;48433;53.016;-2.260;2023-06-14T09:26:09;23.70;71.90
59309;DHT22;48433;53.016;-2.260;2023-06-14T09:28:46;23.80;71.90
59309;DHT22;48433;53.016;-2.260;2023-06-14T09:31:16;23.90;72.10
59309;DHT22;48433;53.016;-2.260;2023-06-14T09:33:46;24.00;72.30
59309;DHT22;48433;53.016;-2.260;2023-06-14T09:36:24;24.20;72.40
59309;DHT22;48433;53.016;-2.260;2023-06-14T09:39:01;24.40;70.60
59309;DHT22;48433;53.016;-2.260;2023-06-14T09:41:40;24.70;67.90
59309;DHT22;48433;53.016;-2.260;2023-06-14T09:44:09;24.80;66.50
59309;DHT22;48433;53.016;-2.260;2023-06-14T09:46:48;25.00;65.60
59309;DHT22;48433;53.016;-2.260;2023-06-14T09:49:18;25.00;66.20
59309;DHT22;48433;53.016;-2.260;2023-06-14T09:51:51;25.30;64.40
59309;DHT22;48433;53.016;-2.260;2023-06-14T09:54:22;25.40;64.00
59309;DHT22;48433;53.016;-2.260;2023-06-14T09:56:51;25.70;64.00
59309;DHT22;48433;53.016;-2.260;2023-06-14T09:59:21;26.00;62.60
59309;DHT22;48433;53.016;-2.260;2023-06-14T10:02:25;26.30;61.70
59309;DHT22;48433;53.016;-2.260;2023-06-14T10:05:03;26.70;60.70
59309;DHT22;48433;53.016;-2.260;2023-06-14T10:07:48;27.10;59.60
59309;DHT22;48433;53.016;-2.260;2023-06-14T10:10:20;27.10;59.90
59309;DHT22;48433;53.016;-2.260;2023-06-14T10:12:50;27.50;59.30
59309;DHT22;48433;53.016;-2.260;2023-06-14T10:15:28;28.10;56.10
59309;DHT22;48433;53.016;-2.260;2023-06-14T10:23:33;28.50;56.30
59309;DHT22;48433;53.016;-2.260;2023-06-14T10:26:03;29.00;54.70
59309;DHT22;48433;53.016;-2.260;2023-06-14T10:28:30;29.20;55.20
59309;DHT22;48433;53.016;-2.260;2023-06-14T10:31:11;29.50;54.70
59309;DHT22;48433;53.016;-2.260;2023-06-14T10:36:31;30.20;50.80
59309;DHT22;48433;53.016;-2.260;2023-06-14T10:39:14;30.30;51.40
59309;DHT22;48433;53.016;-2.260;2023-06-14T10:41:42;30.50;50.80
59309;DHT22;48433;53.016;-2.260;2023-06-14T10:46:48;30.80;47.80
59309;DHT22;48433;53.016;-2.260;2023-06-14T10:49:17;30.90;46.30
59309;DHT22;48433;53.016;-2.260;2023-06-14T10:51:51;30.90;47.00
59309;DHT22;48433;53.016;-2.260;2023-06-14T10:54:20;30.90;45.20
59309;DHT22;48433;53.016;-2.260;2023-06-14T10:56:52;30.90;45.30
59309;DHT22;48433;53.016;-2.260;2023-06-14T10:59:20;30.80;46.00
59309;DHT22;48433;53.016;-2.260;2023-06-14T11:10:39;31.70;45.50
59309;DHT22;48433;53.016;-2.260;2023-06-14T11:13:08;32.00;43.30
59309;DHT22;48433;53.016;-2.260;2023-06-14T11:15:37;31.90;42.70
59309;DHT22;48433;53.016;-2.260;2023-06-14T11:18:07;31.80;43.10
59309;DHT22;48433;53.016;-2.260;2023-06-14T11:20:36;31.70;43.50
59309;DHT22;48433;53.016;-2.260;2023-06-14T11:23:04;31.60;43.10
59309;DHT22;48433;53.016;-2.260;2023-06-14T11:25:32;31.50;42.30
59309;DHT22;48433;53.016;-2.260;2023-06-14T11:28:00;31.40;42.80
59309;DHT22;48433;53.016;-2.260;2023-06-14T11:30:27;31.40;42.40
59309;DHT22;48433;53.016;-2.260;2023-06-14T11:32:55;31.20;41.40
59309;DHT22;48433;53.016;-2.260;2023-06-14T11:35:26;31.20;41.60
59309;DHT22;48433;53.016;-2.260;2023-06-14T11:37:57;31.20;42.30
59309;DHT22;48433;53.016;-2.260;2023-06-14T11:40:26;31.40;42.40
59309;DHT22;48433;53.016;-2.260;2023-06-14T11:42:59;31.90;42.10
59309;DHT22;48433;53.016;-2.260;2023-06-14T11:45:28;32.50;40.40
59309;DHT22;48433;53.016;-2.260;2023-06-14T11:47:59;32.50;41.20
59309;DHT22;48433;53.016;-2.260;2023-06-14T11:50:27;32.30;40.70
59309;DHT22;48433;53.016;-2.260;2023-06-14T11:52:57;32.30;41.20
59309;DHT22;48433;53.016;-2.260;2023-06-14T11:55:25;32.40;41.20
59309;DHT22;48433;53.016;-2.260;2023-06-14T11:57:55;32.40;41.70
59309;DHT22;48433;53.016;-2.260;2023-06-14T12:00:26;32.40;40.70
59309;DHT22;48433;53.016;-2.260;2023-06-14T12:02:55;32.40;40.70
59309;DHT22;48433;53.016;-2.260;2023-06-14T12:05:24;32.70;40.70
59309;DHT22;48433;53.016;-2.260;2023-06-14T12:08:01;32.70;41.20
59309;DHT22;48433;53.016;-2.260;2023-06-14T12:10:30;33.20;40.20
59309;DHT22;48433;53.016;-2.260;2023-06-14T12:13:06;33.20;40.70
59309;DHT22;48433;53.016;-2.260;2023-06-14T12:15:34;33.60;40.20
59309;DHT22;48433;53.016;-2.260;2023-06-14T12:18:05;33.60;40.70
59309;DHT22;48433;53.016;-2.260;2023-06-14T12:20:34;33.90;40.30
59309;DHT22;48433;53.016;-2.260;2023-06-14T12:23:04;34.00;38.10
59309;DHT22;48433;53.016;-2.260;2023-06-14T12:25:36;33.90;37.90
59309;DHT22;48433;53.016;-2.260;2023-06-14T12:28:08;34.00;37.00
59309;DHT22;48433;53.016;-2.260;2023-06-14T12:30:37;34.00;37.70
59309;DHT22;48433;53.016;-2.260;2023-06-14T12:33:05;33.80;37.00
59309;DHT22;48433;53.016;-2.260;2023-06-14T12:35:33;33.70;37.30
59309;DHT22;48433;53.016;-2.260;2023-06-14T12:38:01;33.70;38.10
59309;DHT22;48433;53.016;-2.260;2023-06-14T12:40:31;33.70;38.70
59309;DHT22;48433;53.016;-2.260;2023-06-14T12:42:59;33.80;39.50
59309;DHT22;48433;53.016;-2.260;2023-06-14T12:45:27;34.10;37.50
59309;DHT22;48433;53.016;-2.260;2023-06-14T12:47:54;34.20;38.20
59309;DHT22;48433;53.016;-2.260;2023-06-14T12:50:22;34.10;36.00
59309;DHT22;48433;53.016;-2.260;2023-06-14T12:52:53;34.10;36.60
59309;DHT22;48433;53.016;-2.260;2023-06-14T12:55:20;34.10;36.90
59309;DHT22;48433;53.016;-2.260;2023-06-14T12:57:48;34.10;37.40
59309;DHT22;48433;53.016;-2.260;2023-06-14T13:00:17;34.30;37.10
59309;DHT22;48433;53.016;-2.260;2023-06-14T13:02:45;34.60;36.70
59309;DHT22;48433;53.016;-2.260;2023-06-14T13:05:13;34.60;35.00
59309;DHT22;48433;53.016;-2.260;2023-06-14T13:07:41;34.20;34.80
59309;DHT22;48433;53.016;-2.260;2023-06-14T13:10:09;34.10;35.20
59309;DHT22;48433;53.016;-2.260;2023-06-14T13:12:36;34.00;35.50
59309;DHT22;48433;53.016;-2.260;2023-06-14T13:15:04;33.80;36.50
59309;DHT22;48433;53.016;-2.260;2023-06-14T13:17:32;33.80;37.00
59309;DHT22;48433;53.016;-2.260;2023-06-14T13:20:00;34.30;36.20
59309;DHT22;48433;53.016;-2.260;2023-06-14T13:22:28;34.40;36.80
59309;DHT22;48433;53.016;-2.260;2023-06-14T13:24:56;34.80;35.80
59309;DHT22;48433;53.016;-2.260;2023-06-14T13:27:23;34.80;36.30
59309;DHT22;48433;53.016;-2.260;2023-06-14T13:29:52;34.80;34.30
59309;DHT22;48433;53.016;-2.260;2023-06-14T13:32:21;34.80;34.80
59309;DHT22;48433;53.016;-2.260;2023-06-14T13:37:17;34.80;34.20
59309;DHT22;48433;53.016;-2.260;2023-06-14T13:39:45;35.00;34.30
59309;DHT22;48433;53.016;-2.260;2023-06-14T13:42:12;35.10;34.20
59309;DHT22;48433;53.016;-2.260;2023-06-14T13:44:40;35.10;34.60
59309;DHT22;48433;53.016;-2.260;2023-06-14T13:47:08;35.00;33.20
59309;DHT22;48433;53.016;-2.260;2023-06-14T13:49:35;34.90;33.90
59309;DHT22;48433;53.016;-2.260;2023-06-14T13:52:04;35.00;34.10
59309;DHT22;48433;53.016;-2.260;2023-06-14T13:54:31;35.10;33.00
59309;DHT22;48433;53.016;-2.260;2023-06-14T13:56:59;35.10;32.80
59309;DHT22;48433;53.016;-2.260;2023-06-14T13:59:27;35.30;32.60
59309;DHT22;48433;53.016;-2.260;2023-06-14T14:01:54;35.30;33.10
59309;DHT22;48433;53.016;-2.260;2023-06-14T14:04:22;35.40;33.10
59309;DHT22;48433;53.016;-2.260;2023-06-14T14:06:50;35.30;32.30
59309;DHT22;48433;53.016;-2.260;2023-06-14T14:09:17;35.30;33.30
59309;DHT22;48433;53.016;-2.260;2023-06-14T14:11:45;35.20;32.40
59309;DHT22;48433;53.016;-2.260;2023-06-14T14:14:13;35.20;32.90
59309;DHT22;48433;53.016;-2.260;2023-06-14T14:16:40;35.10;32.80
59309;DHT22;48433;53.016;-2.260;2023-06-14T14:19:08;35.10;32.30
59309;DHT22;48433;53.016;-2.260;2023-06-14T14:21:36;35.30;32.30
59309;DHT22;48433;53.016;-2.260;2023-06-14T14:24:04;35.50;32.20
59309;DHT22;48433;53.016;-2.260;2023-06-14T14:26:31;35.20;32.20
59309;DHT22;48433;53.016;-2.260;2023-06-14T14:28:59;34.70;31.60
59309;DHT22;48433;53.016;-2.260;2023-06-14T14:31:27;34.40;32.20
59309;DHT22;48433;53.016;-2.260;2023-06-14T14:33:54;34.40;32.30
59309;DHT22;48433;53.016;-2.260;2023-06-14T14:36:22;34.40;31.90
59309;DHT22;48433;53.016;-2.260;2023-06-14T14:38:49;34.40;31.90
59309;DHT22;48433;53.016;-2.260;2023-06-14T14:43:47;34.20;31.90
59309;DHT22;48433;53.016;-2.260;2023-06-14T14:46:14;34.40;32.20
59309;DHT22;48433;53.016;-2.260;2023-06-14T14:48:44;34.60;31.80
59309;DHT22;48433;53.016;-2.260;2023-06-14T14:51:11;34.60;32.10
59309;DHT22;48433;53.016;-2.260;2023-06-14T14:53:39;34.40;32.10
59309;DHT22;48433;53.016;-2.260;2023-06-14T14:56:06;34.10;32.20
59309;DHT22;48433;53.016;-2.260;2023-06-14T14:58:34;34.00;32.90
59309;DHT22;48433;53.016;-2.260;2023-06-14T15:01:02;33.90;33.20
59309;DHT22;48433;53.016;-2.260;2023-06-14T15:03:29;34.10;33.10
59309;DHT22;48433;53.016;-2.260;2023-06-14T15:06:02;34.30;32.10
59309;DHT22;48433;53.016;-2.260;2023-06-14T15:08:29;34.30;32.60
59309;DHT22;48433;53.016;-2.260;2023-06-14T15:10:57;34.40;30.90
59309;DHT22;48433;53.016;-2.260;2023-06-14T15:15:53;34.00;31.10
59309;DHT22;48433;53.016;-2.260;2023-06-14T15:18:20;33.80;30.90
59309;DHT22;48433;53.016;-2.260;2023-06-14T15:20:49;33.60;30.50
59309;DHT22;48433;53.016;-2.260;2023-06-14T15:23:17;33.30;31.30
59309;DHT22;48433;53.016;-2.260;2023-06-14T15:25:47;33.50;32.00
59309;DHT22;48433;53.016;-2.260;2023-06-14T15:28:15;33.50;31.60
59309;DHT22;48433;53.016;-2.260;2023-06-14T15:30:42;33.90;31.10
59309;DHT22;48433;53.016;-2.260;2023-06-14T15:33:10;34.00;31.00
59309;DHT22;48433;53.016;-2.260;2023-06-14T15:35:38;34.20;31.30
59309;DHT22;48433;53.016;-2.260;2023-06-14T15:38:07;34.40;31.70
59309;DHT22;48433;53.016;-2.260;2023-06-14T15:40:35;34.30;31.10
59309;DHT22;48433;53.016;-2.260;2023-06-14T15:43:03;34.20;30.80
59309;DHT22;48433;53.016;-2.260;2023-06-14T15:45:30;34.20;30.70
59309;DHT22;48433;53.016;-2.260;2023-06-14T15:47:58;34.30;30.70
59309;DHT22;48433;53.016;-2.260;2023-06-14T15:50:27;34.30;30.50
59309;DHT22;48433;53.016;-2.260;2023-06-14T15:52:55;34.50;30.90
59309;DHT22;48433;53.016;-2.260;2023-06-14T15:55:22;34.50;31.30
59309;DHT22;48433;53.016;-2.260;2023-06-14T15:57:50;34.50;31.90
59309;DHT22;48433;53.016;-2.260;2023-06-14T16:00:18;34.10;30.40
59309;DHT22;48433;53.016;-2.260;2023-06-14T16:05:14;33.30;31.60
59309;DHT22;48433;53.016;-2.260;2023-06-14T16:10:09;32.80;31.20
59309;DHT22;48433;53.016;-2.260;2023-06-14T16:12:37;32.40;31.50
59309;DHT22;48433;53.016;-2.260;2023-06-14T16:17:33;32.40;31.70
59309;DHT22;48433;53.016;-2.260;2023-06-14T16:20:01;32.50;32.00
59309;DHT22;48433;53.016;-2.260;2023-06-14T16:22:29;32.70;32.00
59309;DHT22;48433;53.016;-2.260;2023-06-14T16:24:57;32.60;32.10
59309;DHT22;48433;53.016;-2.260;2023-06-14T16:27:24;32.60;32.00
59309;DHT22;48433;53.016;-2.260;2023-06-14T16:29:52;32.40;32.00
59309;DHT22;48433;53.016;-2.260;2023-06-14T16:32:20;32.20;32.40
59309;DHT22;48433;53.016;-2.260;2023-06-14T16:34:48;32.20;32.70
59309;DHT22;48433;53.016;-2.260;2023-06-14T16:37:16;32.00;32.20
59309;DHT22;48433;53.016;-2.260;2023-06-14T16:42:11;31.20;32.90
59309;DHT22;48433;53.016;-2.260;2023-06-14T16:49:37;30.60;33.70
59309;DHT22;48433;53.016;-2.260;2023-06-14T16:52:05;30.30;34.30
59309;DHT22;48433;53.016;-2.260;2023-06-14T16:57:03;29.60;35.10
59309;DHT22;48433;53.016;-2.260;2023-06-14T16:59:31;29.30;35.30
59309;DHT22;48433;53.016;-2.260;2023-06-14T17:02:02;29.00;36.00
59309;DHT22;48433;53.016;-2.260;2023-06-14T17:07:01;28.70;37.10
59309;DHT22;48433;53.016;-2.260;2023-06-14T17:09:31;28.70;37.60
59309;DHT22;48433;53.016;-2.260;2023-06-14T17:11:59;28.60;38.30
59309;DHT22;48433;53.016;-2.260;2023-06-14T17:14:28;28.50;38.40
59309;DHT22;48433;53.016;-2.260;2023-06-14T17:16:56;28.30;38.60
59309;DHT22;48433;53.016;-2.260;2023-06-14T17:19:24;28.20;38.90
59309;DHT22;48433;53.016;-2.260;2023-06-14T17:21:51;28.00;39.20
59309;DHT22;48433;53.016;-2.260;2023-06-14T17:24:20;28.00;39.40
59309;DHT22;48433;53.016;-2.260;2023-06-14T17:26:55;27.80;39.10
59309;DHT22;48433;53.016;-2.260;2023-06-14T17:29:24;27.70;39.10
59309;DHT22;48433;53.016;-2.260;2023-06-14T17:31:53;27.70;39.30
59309;DHT22;48433;53.016;-2.260;2023-06-14T17:34:22;27.60;40.10
59309;DHT22;48433;53.016;-2.260;2023-06-14T17:39:19;27.50;41.20
59309;DHT22;48433;53.016;-2.260;2023-06-14T17:51:39;26.90;42.90
59309;DHT22;48433;53.016;-2.260;2023-06-14T17:54:07;26.60;43.30
59309;DHT22;48433;53.016;-2.260;2023-06-14T18:06:26;26.10;44.50
59309;DHT22;48433;53.016;-2.260;2023-06-14T18:08:54;26.00;44.40
59309;DHT22;48433;53.016;-2.260;2023-06-14T18:16:20;25.40;45.70
59309;DHT22;48433;53.016;-2.260;2023-06-14T18:26:13;25.20;46.20
59309;DHT22;48433;53.016;-2.260;2023-06-14T18:43:28;24.90;47.20
59309;DHT22;48433;53.016;-2.260;2023-06-14T18:48:27;24.80;47.60
59309;DHT22;48433;53.016;-2.260;2023-06-14T19:25:32;23.60;51.50
59309;DHT22;48433;53.016;-2.260;2023-06-14T19:30:28;23.50;52.10
59309;DHT22;48433;53.016;-2.260;2023-06-14T19:32:55;23.30;52.20
59309;DHT22;48433;53.016;-2.260;2023-06-14T19:37:51;23.20;52.80
59309;DHT22;48433;53.016;-2.260;2023-06-14T19:47:43;22.80;53.70
59309;DHT22;48433;53.016;-2.260;2023-06-14T19:52:40;22.60;54.10
59309;DHT22;48433;53.016;-2.260;2023-06-14T20:00:04;22.30;55.00
59309;DHT22;48433;53.016;-2.260;2023-06-14T20:02:34;22.20;55.20
59309;DHT22;48433;53.016;-2.260;2023-06-14T20:09:59;21.90;56.00
59309;DHT22;48433;53.016;-2.260;2023-06-14T20:12:27;21.80;56.10
59309;DHT22;48433;53.016;-2.260;2023-06-14T20:22:20;21.50;56.80
59309;DHT22;48433;53.016;-2.260;2023-06-14T20:24:48;21.40;57.00
59309;DHT22;48433;53.016;-2.260;2023-06-14T20:27:15;21.40;57.20
59309;DHT22;48433;53.016;-2.260;2023-06-14T20:29:44;21.30;57.50
59309;DHT22;48433;53.016;-2.260;2023-06-14T20:34:40;21.10;57.90
59309;DHT22;48433;53.016;-2.260;2023-06-14T20:39:36;20.90;58.30
59309;DHT22;48433;53.016;-2.260;2023-06-14T20:42:03;20.90;58.60
59309;DHT22;48433;53.016;-2.260;2023-06-14T20:44:43;20.80;58.70
59309;DHT22;48433;53.016;-2.260;2023-06-14T20:49:39;20.60;59.30
59309;DHT22;48433;53.016;-2.260;2023-06-14T20:52:12;20.50;59.70
59309;DHT22;48433;53.016;-2.260;2023-06-14T20:54:40;20.30;60.00
59309;DHT22;48433;53.016;-2.260;2023-06-14T20:57:11;20.20;60.40
59309;DHT22;48433;53.016;-2.260;2023-06-14T20:59:40;20.10;60.90
59309;DHT22;48433;53.016;-2.260;2023-06-14T21:02:08;20.10;61.10
59309;DHT22;48433;53.016;-2.260;2023-06-14T21:07:14;19.90;61.60
59309;DHT22;48433;53.016;-2.260;2023-06-14T21:09:41;19.90;61.90
59309;DHT22;48433;53.016;-2.260;2023-06-14T21:14:39;19.80;62.20
59309;DHT22;48433;53.016;-2.260;2023-06-14T21:22:08;19.60;63.00
59309;DHT22;48433;53.016;-2.260;2023-06-14T21:27:05;19.50;63.30
59309;DHT22;48433;53.016;-2.260;2023-06-14T21:32:04;19.40;64.00
59309;DHT22;48433;53.016;-2.260;2023-06-14T21:37:00;19.30;64.40
59309;DHT22;48433;53.016;-2.260;2023-06-14T21:39:28;19.30;65.00
59309;DHT22;48433;53.016;-2.260;2023-06-14T21:41:55;19.20;65.40
59309;DHT22;48433;53.016;-2.260;2023-06-14T21:54:15;18.90;67.00
59309;DHT22;48433;53.016;-2.260;2023-06-14T21:56:43;18.90;67.30
59309;DHT22;48433;53.016;-2.260;2023-06-14T22:04:06;18.70;68.50
59309;DHT22;48433;53.016;-2.260;2023-06-14T22:09:02;18.50;69.40
59309;DHT22;48433;53.016;-2.260;2023-06-14T22:14:01;18.50;69.80
59309;DHT22;48433;53.016;-2.260;2023-06-14T22:16:30;18.40;70.60
59309;DHT22;48433;53.016;-2.260;2023-06-14T22:18:58;18.40;71.20